sensor_id;sensor_type;location;lat;lon;timestamp;P1;durP1;ratioP1;P2;durP2;ratioP2
29848;SDS011;16728;50.832;5.590;2023-02-20T00:00:44;29.67;;;19.88;;
29848;SDS011;16728;50.832;5.590;2023-02-20T00:03:46;27.77;;;16.15;;
29848;SDS011;16728;50.832;5.590;2023-02-20T00:06:48;24.63;;;15.65;;
29848;SDS011;16728;50.832;5.590;2023-02-20T00:09:50;26.45;;;16.35;;
29848;SDS011;16728;50.832;5.590;2023-02-20T00:12:52;25.08;;;15.73;;
29848;SDS011;16728;50.832;5.590;2023-02-20T00:15:54;25.35;;;16.13;;
29848;SDS011;16728;50.832;5.590;2023-02-20T00:18:56;23.92;;;16.08;;
29848;SDS011;16728;50.832;5.590;2023-02-20T00:21:59;25.92;;;16.27;;
29848;SDS011;16728;50.832;5.590;2023-02-20T00:25:00;23.33;;;16.00;;
29848;SDS011;16728;50.832;5.590;2023-02-20T00:28:02;25.70;;;16.20;;
29848;SDS011;16728;50.832;5.590;2023-02-20T00:31:05;25.90;;;14.90;;
29848;SDS011;16728;50.832;5.590;2023-02-20T00:34:08;28.83;;;16.40;;
29848;SDS011;16728;50.832;5.590;2023-02-20T00:37:09;20.83;;;14.88;;
29848;SDS011;16728;50.832;5.590;2023-02-20T00:40:13;22.92;;;14.65;;
29848;SDS011;16728;50.832;5.590;2023-02-20T00:46:18;23.05;;;13.45;;
29848;SDS011;16728;50.832;5.590;2023-02-20T00:49:20;21.70;;;12.70;;
29848;SDS011;16728;50.832;5.590;2023-02-20T00:52:21;21.10;;;12.40;;
29848;SDS011;16728;50.832;5.590;2023-02-20T00:55:23;20.45;;;12.82;;
29848;SDS011;16728;50.832;5.590;2023-02-20T00:58:25;21.33;;;12.93;;
29848;SDS011;16728;50.832;5.590;2023-02-20T01:01:27;21.90;;;12.95;;
29848;SDS011;16728;50.832;5.590;2023-02-20T01:04:30;21.23;;;12.43;;
29848;SDS011;16728;50.832;5.590;2023-02-20T01:07:32;19.98;;;11.50;;
29848;SDS011;16728;50.832;5.590;2023-02-20T01:10:34;17.17;;;10.02;;
29848;SDS011;16728;50.832;5.590;2023-02-20T01:13:35;18.00;;;10.15;;
29848;SDS011;16728;50.832;5.590;2023-02-20T01:16:44;19.40;;;10.13;;
29848;SDS011;16728;50.832;5.590;2023-02-20T01:19:47;16.58;;;9.68;;
29848;SDS011;16728;50.832;5.590;2023-02-20T01:22:49;19.75;;;9.27;;
29848;SDS011;16728;50.832;5.590;2023-02-20T01:25:51;16.90;;;8.98;;
29848;SDS011;16728;50.832;5.590;2023-02-20T01:28:53;17.50;;;8.73;;
29848;SDS011;16728;50.832;5.590;2023-02-20T01:31:55;12.82;;;8.23;;
29848;SDS011;16728;50.832;5.590;2023-02-20T01:34:57;11.88;;;7.78;;
29848;SDS011;16728;50.832;5.590;2023-02-20T01:37:59;14.75;;;7.60;;
29848;SDS011;16728;50.832;5.590;2023-02-20T01:41:01;13.85;;;7.85;;
29848;SDS011;16728;50.832;5.590;2023-02-20T01:44:03;12.80;;;7.30;;
29848;SDS011;16728;50.832;5.590;2023-02-20T01:47:06;13.30;;;6.38;;
29848;SDS011;16728;50.832;5.590;2023-02-20T01:50:09;8.77;;;6.30;;
29848;SDS011;16728;50.832;5.590;2023-02-20T01:53:16;12.52;;;6.75;;
29848;SDS011;16728;50.832;5.590;2023-02-20T01:56:22;11.55;;;5.93;;
29848;SDS011;16728;50.832;5.590;2023-02-20T01:59:24;11.85;;;5.85;;
29848;SDS011;16728;50.832;5.590;2023-02-20T02:02:30;10.95;;;5.82;;
29848;SDS011;16728;50.832;5.590;2023-02-20T02:05:35;9.75;;;5.97;;
29848;SDS011;16728;50.832;5.590;2023-02-20T02:08:41;9.73;;;6.05;;
29848;SDS011;16728;50.832;5.590;2023-02-20T02:11:46;11.70;;;5.97;;
29848;SDS011;16728;50.832;5.590;2023-02-20T02:14:50;9.65;;;5.35;;
29848;SDS011;16728;50.832;5.590;2023-02-20T02:35:23;8.95;;;4.13;;
29848;SDS011;16728;50.832;5.590;2023-02-20T02:49:28;14.10;;;4.80;;
29848;SDS011;16728;50.832;5.590;2023-02-20T02:52:55;9.32;;;4.05;;
29848;SDS011;16728;50.832;5.590;2023-02-20T02:55:58;12.15;;;4.32;;
29848;SDS011;16728;50.832;5.590;2023-02-20T02:59:25;12.95;;;4.28;;
29848;SDS011;16728;50.832;5.590;2023-02-20T03:02:33;8.73;;;4.10;;
29848;SDS011;16728;50.832;5.590;2023-02-20T03:06:22;8.13;;;3.88;;
29848;SDS011;16728;50.832;5.590;2023-02-20T03:09:31;5.15;;;3.63;;
29848;SDS011;16728;50.832;5.590;2023-02-20T03:12:49;9.48;;;3.83;;
29848;SDS011;16728;50.832;5.590;2023-02-20T03:15:51;7.80;;;4.25;;
29848;SDS011;16728;50.832;5.590;2023-02-20T03:18:56;8.93;;;4.18;;
29848;SDS011;16728;50.832;5.590;2023-02-20T03:22:03;7.20;;;4.03;;
29848;SDS011;16728;50.832;5.590;2023-02-20T03:25:12;8.40;;;3.97;;
29848;SDS011;16728;50.832;5.590;2023-02-20T03:28:27;12.82;;;4.03;;
29848;SDS011;16728;50.832;5.590;2023-02-20T03:31:42;8.63;;;4.13;;
29848;SDS011;16728;50.832;5.590;2023-02-20T03:34:48;9.40;;;4.22;;
29848;SDS011;16728;50.832;5.590;2023-02-20T03:38:11;8.10;;;4.10;;
29848;SDS011;16728;50.832;5.590;2023-02-20T03:41:35;8.07;;;4.07;;
29848;SDS011;16728;50.832;5.590;2023-02-20T03:44:59;12.20;;;4.18;;
29848;SDS011;16728;50.832;5.590;2023-02-20T03:48:05;9.18;;;4.13;;
29848;SDS011;16728;50.832;5.590;2023-02-20T03:51:12;8.48;;;3.70;;
29848;SDS011;16728;50.832;5.590;2023-02-20T03:54:14;8.77;;;3.78;;
29848;SDS011;16728;50.832;5.590;2023-02-20T03:57:18;11.93;;;3.67;;
29848;SDS011;16728;50.832;5.590;2023-02-20T04:00:26;7.32;;;3.13;;
29848;SDS011;16728;50.832;5.590;2023-02-20T04:03:32;12.60;;;3.92;;
29848;SDS011;16728;50.832;5.590;2023-02-20T04:06:39;9.18;;;3.42;;
29848;SDS011;16728;50.832;5.590;2023-02-20T04:09:44;7.47;;;3.45;;
29848;SDS011;16728;50.832;5.590;2023-02-20T04:12:47;10.13;;;3.42;;
29848;SDS011;16728;50.832;5.590;2023-02-20T04:15:51;14.63;;;4.10;;
29848;SDS011;16728;50.832;5.590;2023-02-20T04:18:53;7.47;;;3.70;;
29848;SDS011;16728;50.832;5.590;2023-02-20T04:21:56;9.30;;;3.50;;
29848;SDS011;16728;50.832;5.590;2023-02-20T04:25:08;11.00;;;3.88;;
29848;SDS011;16728;50.832;5.590;2023-02-20T04:28:13;10.52;;;3.97;;
29848;SDS011;16728;50.832;5.590;2023-02-20T04:31:16;9.43;;;4.03;;
29848;SDS011;16728;50.832;5.590;2023-02-20T04:37:21;9.95;;;4.32;;
29848;SDS011;16728;50.832;5.590;2023-02-20T04:40:23;8.45;;;4.85;;
29848;SDS011;16728;50.832;5.590;2023-02-20T04:43:25;14.63;;;5.38;;
29848;SDS011;16728;50.832;5.590;2023-02-20T04:46:27;16.50;;;5.82;;
29848;SDS011;16728;50.832;5.590;2023-02-20T04:49:29;12.68;;;6.47;;
29848;SDS011;16728;50.832;5.590;2023-02-20T04:52:31;17.85;;;8.48;;
29848;SDS011;16728;50.832;5.590;2023-02-20T04:55:33;19.15;;;9.88;;
29848;SDS011;16728;50.832;5.590;2023-02-20T04:58:35;21.75;;;11.52;;
29848;SDS011;16728;50.832;5.590;2023-02-20T05:01:37;17.75;;;12.57;;
29848;SDS011;16728;50.832;5.590;2023-02-20T05:04:39;25.38;;;14.93;;
29848;SDS011;16728;50.832;5.590;2023-02-20T05:07:41;32.65;;;17.25;;
29848;SDS011;16728;50.832;5.590;2023-02-20T05:10:43;25.58;;;16.55;;
29848;SDS011;16728;50.832;5.590;2023-02-20T05:13:47;31.08;;;15.95;;
29848;SDS011;16728;50.832;5.590;2023-02-20T05:20:09;23.75;;;13.13;;
29848;SDS011;16728;50.832;5.590;2023-02-20T05:23:12;16.55;;;11.82;;
29848;SDS011;16728;50.832;5.590;2023-02-20T05:26:18;25.70;;;13.15;;
29848;SDS011;16728;50.832;5.590;2023-02-20T05:29:21;20.00;;;12.25;;
29848;SDS011;16728;50.832;5.590;2023-02-20T05:32:24;20.10;;;12.55;;
29848;SDS011;16728;50.832;5.590;2023-02-20T05:35:28;19.05;;;11.48;;
29848;SDS011;16728;50.832;5.590;2023-02-20T05:38:30;21.48;;;10.40;;
29848;SDS011;16728;50.832;5.590;2023-02-20T05:41:32;14.20;;;8.68;;
29848;SDS011;16728;50.832;5.590;2023-02-20T05:44:34;17.77;;;8.68;;
29848;SDS011;16728;50.832;5.590;2023-02-20T05:47:36;11.20;;;8.15;;
29848;SDS011;16728;50.832;5.590;2023-02-20T05:50:39;20.50;;;8.27;;
29848;SDS011;16728;50.832;5.590;2023-02-20T05:53:41;13.25;;;8.30;;
29848;SDS011;16728;50.832;5.590;2023-02-20T05:56:43;12.80;;;8.30;;
29848;SDS011;16728;50.832;5.590;2023-02-20T06:02:48;12.98;;;7.20;;
29848;SDS011;16728;50.832;5.590;2023-02-20T06:05:50;12.77;;;8.00;;
29848;SDS011;16728;50.832;5.590;2023-02-20T06:08:52;11.73;;;7.80;;
29848;SDS011;16728;50.832;5.590;2023-02-20T06:11:54;12.82;;;7.47;;
29848;SDS011;16728;50.832;5.590;2023-02-20T06:17:59;14.75;;;8.18;;
29848;SDS011;16728;50.832;5.590;2023-02-20T06:21:01;14.35;;;8.55;;
29848;SDS011;16728;50.832;5.590;2023-02-20T06:24:03;12.77;;;8.50;;
29848;SDS011;16728;50.832;5.590;2023-02-20T06:27:06;16.83;;;9.48;;
29848;SDS011;16728;50.832;5.590;2023-02-20T06:30:09;14.05;;;10.18;;
29848;SDS011;16728;50.832;5.590;2023-02-20T06:33:11;26.63;;;10.87;;
29848;SDS011;16728;50.832;5.590;2023-02-20T06:36:33;14.90;;;11.35;;
29848;SDS011;16728;50.832;5.590;2023-02-20T06:39:36;17.73;;;11.03;;
29848;SDS011;16728;50.832;5.590;2023-02-20T06:42:40;21.63;;;13.20;;
29848;SDS011;16728;50.832;5.590;2023-02-20T06:45:41;19.20;;;11.60;;
29848;SDS011;16728;50.832;5.590;2023-02-20T06:48:47;19.58;;;12.27;;
29848;SDS011;16728;50.832;5.590;2023-02-20T06:51:52;19.05;;;13.07;;
29848;SDS011;16728;50.832;5.590;2023-02-20T06:54:54;19.17;;;12.63;;
29848;SDS011;16728;50.832;5.590;2023-02-20T06:57:56;19.85;;;13.70;;
29848;SDS011;16728;50.832;5.590;2023-02-20T07:00:58;20.98;;;13.38;;
29848;SDS011;16728;50.832;5.590;2023-02-20T07:04:04;18.23;;;13.20;;
29848;SDS011;16728;50.832;5.590;2023-02-20T07:07:06;24.15;;;15.13;;
29848;SDS011;16728;50.832;5.590;2023-02-20T07:10:08;22.17;;;15.00;;
29848;SDS011;16728;50.832;5.590;2023-02-20T07:13:10;26.30;;;16.13;;
29848;SDS011;16728;50.832;5.590;2023-02-20T07:16:12;23.40;;;16.02;;
29848;SDS011;16728;50.832;5.590;2023-02-20T07:19:15;26.02;;;17.00;;
29848;SDS011;16728;50.832;5.590;2023-02-20T07:22:17;25.85;;;17.25;;
29848;SDS011;16728;50.832;5.590;2023-02-20T07:25:19;26.98;;;17.88;;
29848;SDS011;16728;50.832;5.590;2023-02-20T07:28:21;26.42;;;16.08;;
29848;SDS011;16728;50.832;5.590;2023-02-20T07:31:24;22.83;;;16.48;;
29848;SDS011;16728;50.832;5.590;2023-02-20T07:34:26;23.63;;;13.52;;
29848;SDS011;16728;50.832;5.590;2023-02-20T07:37:28;18.65;;;13.02;;
29848;SDS011;16728;50.832;5.590;2023-02-20T07:40:30;18.05;;;11.93;;
29848;SDS011;16728;50.832;5.590;2023-02-20T07:43:32;20.75;;;11.15;;
29848;SDS011;16728;50.832;5.590;2023-02-20T07:46:34;20.17;;;10.50;;
29848;SDS011;16728;50.832;5.590;2023-02-20T07:49:36;16.23;;;10.00;;
29848;SDS011;16728;50.832;5.590;2023-02-20T07:52:38;14.13;;;9.85;;
29848;SDS011;16728;50.832;5.590;2023-02-20T07:55:41;14.85;;;9.02;;
29848;SDS011;16728;50.832;5.590;2023-02-20T07:58:43;16.40;;;9.80;;
29848;SDS011;16728;50.832;5.590;2023-02-20T08:01:46;15.23;;;9.18;;
29848;SDS011;16728;50.832;5.590;2023-02-20T08:04:48;12.63;;;8.93;;
29848;SDS011;16728;50.832;5.590;2023-02-20T08:07:50;17.08;;;9.20;;
29848;SDS011;16728;50.832;5.590;2023-02-20T08:10:52;17.92;;;9.68;;
29848;SDS011;16728;50.832;5.590;2023-02-20T08:14:08;22.58;;;9.77;;
29848;SDS011;16728;50.832;5.590;2023-02-20T08:17:10;14.85;;;9.32;;
29848;SDS011;16728;50.832;5.590;2023-02-20T08:20:13;18.30;;;9.60;;
29848;SDS011;16728;50.832;5.590;2023-02-20T08:23:17;16.05;;;9.98;;
29848;SDS011;16728;50.832;5.590;2023-02-20T08:26:22;15.18;;;8.85;;
29848;SDS011;16728;50.832;5.590;2023-02-20T08:29:24;17.85;;;9.70;;
29848;SDS011;16728;50.832;5.590;2023-02-20T08:32:26;15.90;;;9.73;;
29848;SDS011;16728;50.832;5.590;2023-02-20T08:35:29;16.45;;;9.90;;
29848;SDS011;16728;50.832;5.590;2023-02-20T08:38:32;13.82;;;9.75;;
29848;SDS011;16728;50.832;5.590;2023-02-20T08:41:40;15.05;;;9.18;;
29848;SDS011;16728;50.832;5.590;2023-02-20T08:44:43;17.00;;;9.60;;
29848;SDS011;16728;50.832;5.590;2023-02-20T08:47:45;15.10;;;9.68;;
29848;SDS011;16728;50.832;5.590;2023-02-20T08:50:48;14.70;;;9.57;;
29848;SDS011;16728;50.832;5.590;2023-02-20T08:53:50;15.70;;;10.13;;
29848;SDS011;16728;50.832;5.590;2023-02-20T08:56:52;18.10;;;9.43;;
29848;SDS011;16728;50.832;5.590;2023-02-20T08:59:54;14.00;;;10.35;;
29848;SDS011;16728;50.832;5.590;2023-02-20T09:02:56;15.70;;;9.65;;
29848;SDS011;16728;50.832;5.590;2023-02-20T09:05:58;13.95;;;8.63;;
29848;SDS011;16728;50.832;5.590;2023-02-20T09:09:01;17.05;;;10.70;;
29848;SDS011;16728;50.832;5.590;2023-02-20T09:12:06;16.75;;;9.57;;
29848;SDS011;16728;50.832;5.590;2023-02-20T09:15:09;15.10;;;9.77;;
29848;SDS011;16728;50.832;5.590;2023-02-20T09:18:12;17.27;;;9.68;;
29848;SDS011;16728;50.832;5.590;2023-02-20T09:21:26;18.13;;;10.35;;
29848;SDS011;16728;50.832;5.590;2023-02-20T09:24:38;16.27;;;9.77;;
29848;SDS011;16728;50.832;5.590;2023-02-20T09:27:42;15.05;;;9.35;;
29848;SDS011;16728;50.832;5.590;2023-02-20T09:30:49;15.43;;;10.77;;
29848;SDS011;16728;50.832;5.590;2023-02-20T09:33:55;19.27;;;10.88;;
29848;SDS011;16728;50.832;5.590;2023-02-20T09:36:57;19.50;;;11.15;;
29848;SDS011;16728;50.832;5.590;2023-02-20T09:40:00;17.25;;;10.10;;
29848;SDS011;16728;50.832;5.590;2023-02-20T09:43:10;15.43;;;11.02;;
29848;SDS011;16728;50.832;5.590;2023-02-20T09:49:20;18.98;;;10.07;;
29848;SDS011;16728;50.832;5.590;2023-02-20T09:52:30;16.77;;;10.48;;
29848;SDS011;16728;50.832;5.590;2023-02-20T09:55:42;21.00;;;10.27;;
29848;SDS011;16728;50.832;5.590;2023-02-20T09:58:45;18.75;;;11.05;;
29848;SDS011;16728;50.832;5.590;2023-02-20T10:01:55;19.02;;;9.75;;
29848;SDS011;16728;50.832;5.590;2023-02-20T10:05:27;19.42;;;11.00;;
29848;SDS011;16728;50.832;5.590;2023-02-20T10:08:31;16.40;;;10.82;;
29848;SDS011;16728;50.832;5.590;2023-02-20T10:11:55;17.83;;;11.50;;
29848;SDS011;16728;50.832;5.590;2023-02-20T10:22:47;19.67;;;10.00;;
29848;SDS011;16728;50.832;5.590;2023-02-20T10:26:07;17.98;;;10.85;;
29848;SDS011;16728;50.832;5.590;2023-02-20T10:33:48;16.75;;;11.10;;
29848;SDS011;16728;50.832;5.590;2023-02-20T10:37:13;16.33;;;10.73;;
29848;SDS011;16728;50.832;5.590;2023-02-20T10:44:34;17.17;;;10.38;;
29848;SDS011;16728;50.832;5.590;2023-02-20T10:51:10;18.27;;;10.80;;
29848;SDS011;16728;50.832;5.590;2023-02-20T10:54:44;20.30;;;11.30;;
29848;SDS011;16728;50.832;5.590;2023-02-20T10:58:00;19.75;;;11.15;;
29848;SDS011;16728;50.832;5.590;2023-02-20T11:01:09;21.83;;;11.80;;
29848;SDS011;16728;50.832;5.590;2023-02-20T11:04:23;16.80;;;10.80;;
29848;SDS011;16728;50.832;5.590;2023-02-20T11:07:29;18.55;;;9.60;;
29848;SDS011;16728;50.832;5.590;2023-02-20T11:10:31;15.98;;;11.27;;
29848;SDS011;16728;50.832;5.590;2023-02-20T11:13:35;20.98;;;10.82;;
29848;SDS011;16728;50.832;5.590;2023-02-20T11:16:57;16.88;;;11.35;;
29848;SDS011;16728;50.832;5.590;2023-02-20T11:26:39;17.98;;;11.30;;
29848;SDS011;16728;50.832;5.590;2023-02-20T11:29:46;20.27;;;12.05;;
29848;SDS011;16728;50.832;5.590;2023-02-20T11:36:21;19.73;;;12.68;;
29848;SDS011;16728;50.832;5.590;2023-02-20T11:39:26;19.52;;;13.27;;
29848;SDS011;16728;50.832;5.590;2023-02-20T11:42:31;19.88;;;13.77;;
29848;SDS011;16728;50.832;5.590;2023-02-20T11:45:36;21.50;;;14.00;;
29848;SDS011;16728;50.832;5.590;2023-02-20T11:48:39;26.13;;;15.15;;
29848;SDS011;16728;50.832;5.590;2023-02-20T11:55:32;24.88;;;14.80;;
29848;SDS011;16728;50.832;5.590;2023-02-20T11:58:35;24.95;;;15.60;;
29848;SDS011;16728;50.832;5.590;2023-02-20T12:01:38;20.52;;;14.15;;
29848;SDS011;16728;50.832;5.590;2023-02-20T12:04:43;23.55;;;15.02;;
29848;SDS011;16728;50.832;5.590;2023-02-20T12:08:01;21.73;;;15.18;;
29848;SDS011;16728;50.832;5.590;2023-02-20T12:11:13;26.60;;;15.57;;
29848;SDS011;16728;50.832;5.590;2023-02-20T12:14:19;24.33;;;15.18;;
29848;SDS011;16728;50.832;5.590;2023-02-20T12:20:26;29.88;;;14.25;;
29848;SDS011;16728;50.832;5.590;2023-02-20T12:26:56;20.05;;;13.43;;
29848;SDS011;16728;50.832;5.590;2023-02-20T12:40:12;24.35;;;14.50;;
29848;SDS011;16728;50.832;5.590;2023-02-20T12:59:58;23.52;;;13.35;;
29848;SDS011;16728;50.832;5.590;2023-02-20T13:06:10;20.73;;;12.00;;
29848;SDS011;16728;50.832;5.590;2023-02-20T13:12:23;17.98;;;13.40;;
29848;SDS011;16728;50.832;5.590;2023-02-20T13:22:14;18.17;;;11.07;;
29848;SDS011;16728;50.832;5.590;2023-02-20T13:28:40;21.17;;;12.82;;
29848;SDS011;16728;50.832;5.590;2023-02-20T13:31:47;20.13;;;13.32;;
29848;SDS011;16728;50.832;5.590;2023-02-20T13:34:54;20.10;;;12.38;;
29848;SDS011;16728;50.832;5.590;2023-02-20T13:42:25;17.40;;;10.85;;
29848;SDS011;16728;50.832;5.590;2023-02-20T13:45:38;16.42;;;9.68;;
29848;SDS011;16728;50.832;5.590;2023-02-20T13:48:49;14.32;;;9.10;;
29848;SDS011;16728;50.832;5.590;2023-02-20T13:51:52;16.13;;;9.60;;
29848;SDS011;16728;50.832;5.590;2023-02-20T13:54:55;16.77;;;11.10;;
29848;SDS011;16728;50.832;5.590;2023-02-20T13:58:10;22.83;;;12.68;;
29848;SDS011;16728;50.832;5.590;2023-02-20T14:01:14;18.27;;;11.30;;
29848;SDS011;16728;50.832;5.590;2023-02-20T14:04:25;15.25;;;10.38;;
29848;SDS011;16728;50.832;5.590;2023-02-20T14:07:35;14.17;;;9.37;;
29848;SDS011;16728;50.832;5.590;2023-02-20T14:10:43;13.52;;;8.88;;
29848;SDS011;16728;50.832;5.590;2023-02-20T14:13:49;16.13;;;10.32;;
29848;SDS011;16728;50.832;5.590;2023-02-20T14:17:01;18.02;;;12.60;;
29848;SDS011;16728;50.832;5.590;2023-02-20T14:20:21;19.00;;;12.48;;
29848;SDS011;16728;50.832;5.590;2023-02-20T14:23:29;16.48;;;11.60;;
29848;SDS011;16728;50.832;5.590;2023-02-20T14:26:32;19.65;;;12.10;;
29848;SDS011;16728;50.832;5.590;2023-02-20T14:32:50;14.45;;;10.02;;
29848;SDS011;16728;50.832;5.590;2023-02-20T14:39:20;13.93;;;8.43;;
29848;SDS011;16728;50.832;5.590;2023-02-20T14:42:29;15.25;;;8.23;;
29848;SDS011;16728;50.832;5.590;2023-02-20T14:45:32;16.33;;;8.82;;
29848;SDS011;16728;50.832;5.590;2023-02-20T14:48:35;12.07;;;8.70;;
29848;SDS011;16728;50.832;5.590;2023-02-20T14:51:42;13.98;;;8.30;;
29848;SDS011;16728;50.832;5.590;2023-02-20T14:54:54;9.88;;;7.28;;
29848;SDS011;16728;50.832;5.590;2023-02-20T14:58:07;11.40;;;8.93;;
29848;SDS011;16728;50.832;5.590;2023-02-20T15:04:28;11.63;;;7.38;;
29848;SDS011;16728;50.832;5.590;2023-02-20T15:07:30;13.73;;;7.50;;
29848;SDS011;16728;50.832;5.590;2023-02-20T15:13:39;11.82;;;8.25;;
29848;SDS011;16728;50.832;5.590;2023-02-20T15:16:43;12.55;;;7.68;;
29848;SDS011;16728;50.832;5.590;2023-02-20T15:19:45;14.68;;;8.00;;
29848;SDS011;16728;50.832;5.590;2023-02-20T15:22:47;10.13;;;7.50;;
29848;SDS011;16728;50.832;5.590;2023-02-20T15:25:48;12.70;;;7.57;;
29848;SDS011;16728;50.832;5.590;2023-02-20T15:32:25;18.15;;;7.65;;
29848;SDS011;16728;50.832;5.590;2023-02-20T15:35:30;14.50;;;8.05;;
29848;SDS011;16728;50.832;5.590;2023-02-20T15:38:33;12.25;;;8.38;;
29848;SDS011;16728;50.832;5.590;2023-02-20T15:41:36;12.52;;;8.40;;
29848;SDS011;16728;50.832;5.590;2023-02-20T15:44:38;10.02;;;7.57;;
29848;SDS011;16728;50.832;5.590;2023-02-20T15:47:40;14.70;;;7.05;;
29848;SDS011;16728;50.832;5.590;2023-02-20T15:50:42;12.10;;;7.37;;
29848;SDS011;16728;50.832;5.590;2023-02-20T15:53:44;13.13;;;7.15;;
29848;SDS011;16728;50.832;5.590;2023-02-20T15:56:46;10.82;;;7.70;;
29848;SDS011;16728;50.832;5.590;2023-02-20T15:59:49;9.63;;;7.25;;
29848;SDS011;16728;50.832;5.590;2023-02-20T16:02:51;12.60;;;7.38;;
29848;SDS011;16728;50.832;5.590;2023-02-20T16:05:53;16.25;;;7.95;;
29848;SDS011;16728;50.832;5.590;2023-02-20T16:08:56;16.10;;;7.27;;
29848;SDS011;16728;50.832;5.590;2023-02-20T16:11:59;17.42;;;7.75;;
29848;SDS011;16728;50.832;5.590;2023-02-20T16:15:01;13.48;;;8.90;;
29848;SDS011;16728;50.832;5.590;2023-02-20T16:18:08;15.77;;;10.07;;
29848;SDS011;16728;50.832;5.590;2023-02-20T16:21:12;18.85;;;10.63;;
29848;SDS011;16728;50.832;5.590;2023-02-20T16:24:16;15.05;;;9.95;;
29848;SDS011;16728;50.832;5.590;2023-02-20T16:27:21;15.85;;;9.55;;
29848;SDS011;16728;50.832;5.590;2023-02-20T16:33:38;14.55;;;9.70;;
29848;SDS011;16728;50.832;5.590;2023-02-20T16:36:40;11.73;;;9.13;;
29848;SDS011;16728;50.832;5.590;2023-02-20T16:39:42;16.85;;;9.27;;
29848;SDS011;16728;50.832;5.590;2023-02-20T16:42:45;15.13;;;9.30;;
29848;SDS011;16728;50.832;5.590;2023-02-20T16:45:50;12.93;;;9.20;;
29848;SDS011;16728;50.832;5.590;2023-02-20T16:48:52;13.60;;;8.90;;
29848;SDS011;16728;50.832;5.590;2023-02-20T16:51:54;15.77;;;9.25;;
29848;SDS011;16728;50.832;5.590;2023-02-20T16:55:01;12.93;;;8.93;;
29848;SDS011;16728;50.832;5.590;2023-02-20T16:58:04;12.23;;;8.95;;
29848;SDS011;16728;50.832;5.590;2023-02-20T17:01:06;17.40;;;10.20;;
29848;SDS011;16728;50.832;5.590;2023-02-20T17:04:09;14.68;;;9.45;;
29848;SDS011;16728;50.832;5.590;2023-02-20T17:07:14;18.75;;;11.02;;
29848;SDS011;16728;50.832;5.590;2023-02-20T17:10:17;12.65;;;9.73;;
29848;SDS011;16728;50.832;5.590;2023-02-20T17:13:19;15.00;;;10.15;;
29848;SDS011;16728;50.832;5.590;2023-02-20T17:16:21;14.57;;;9.23;;
29848;SDS011;16728;50.832;5.590;2023-02-20T17:19:32;12.70;;;9.07;;
29848;SDS011;16728;50.832;5.590;2023-02-20T17:22:36;13.70;;;8.48;;
29848;SDS011;16728;50.832;5.590;2023-02-20T17:25:38;13.60;;;10.23;;
29848;SDS011;16728;50.832;5.590;2023-02-20T17:28:41;16.08;;;9.82;;
29848;SDS011;16728;50.832;5.590;2023-02-20T17:31:43;14.38;;;11.00;;
29848;SDS011;16728;50.832;5.590;2023-02-20T17:34:45;15.63;;;10.43;;
29848;SDS011;16728;50.832;5.590;2023-02-20T17:37:47;19.40;;;12.05;;
29848;SDS011;16728;50.832;5.590;2023-02-20T17:40:50;19.25;;;13.45;;
29848;SDS011;16728;50.832;5.590;2023-02-20T17:43:52;20.75;;;14.55;;
29848;SDS011;16728;50.832;5.590;2023-02-20T17:46:55;19.98;;;13.77;;
29848;SDS011;16728;50.832;5.590;2023-02-20T17:49:58;20.15;;;12.85;;
29848;SDS011;16728;50.832;5.590;2023-02-20T17:53:00;16.40;;;12.73;;
29848;SDS011;16728;50.832;5.590;2023-02-20T17:56:02;16.92;;;11.93;;
29848;SDS011;16728;50.832;5.590;2023-02-20T17:59:04;18.30;;;11.73;;
29848;SDS011;16728;50.832;5.590;2023-02-20T18:02:07;15.32;;;11.75;;
29848;SDS011;16728;50.832;5.590;2023-02-20T18:05:11;17.10;;;11.77;;
29848;SDS011;16728;50.832;5.590;2023-02-20T18:08:13;18.95;;;12.18;;
29848;SDS011;16728;50.832;5.590;2023-02-20T18:11:15;17.10;;;12.23;;
29848;SDS011;16728;50.832;5.590;2023-02-20T18:14:18;19.02;;;12.48;;
29848;SDS011;16728;50.832;5.590;2023-02-20T18:17:21;21.15;;;13.30;;
29848;SDS011;16728;50.832;5.590;2023-02-20T18:20:24;14.82;;;11.32;;
29848;SDS011;16728;50.832;5.590;2023-02-20T18:23:26;21.52;;;13.02;;
29848;SDS011;16728;50.832;5.590;2023-02-20T18:26:28;13.32;;;11.10;;
29848;SDS011;16728;50.832;5.590;2023-02-20T18:29:31;16.70;;;12.45;;
29848;SDS011;16728;50.832;5.590;2023-02-20T18:32:33;19.25;;;12.18;;
29848;SDS011;16728;50.832;5.590;2023-02-20T18:35:35;19.60;;;12.43;;
29848;SDS011;16728;50.832;5.590;2023-02-20T18:38:38;19.80;;;12.55;;
29848;SDS011;16728;50.832;5.590;2023-02-20T18:41:40;17.80;;;12.60;;
29848;SDS011;16728;50.832;5.590;2023-02-20T18:44:45;16.13;;;12.65;;
29848;SDS011;16728;50.832;5.590;2023-02-20T18:47:49;16.42;;;12.55;;
29848;SDS011;16728;50.832;5.590;2023-02-20T18:53:54;18.92;;;13.05;;
29848;SDS011;16728;50.832;5.590;2023-02-20T18:56:56;17.25;;;11.88;;
29848;SDS011;16728;50.832;5.590;2023-02-20T18:59:59;19.77;;;13.10;;
29848;SDS011;16728;50.832;5.590;2023-02-20T19:03:01;17.30;;;12.23;;
29848;SDS011;16728;50.832;5.590;2023-02-20T19:06:08;15.95;;;11.10;;
29848;SDS011;16728;50.832;5.590;2023-02-20T19:09:12;17.70;;;12.77;;
29848;SDS011;16728;50.832;5.590;2023-02-20T19:12:15;15.32;;;12.23;;
29848;SDS011;16728;50.832;5.590;2023-02-20T19:15:18;17.98;;;12.32;;
29848;SDS011;16728;50.832;5.590;2023-02-20T19:18:22;16.58;;;12.30;;
29848;SDS011;16728;50.832;5.590;2023-02-20T19:21:24;19.65;;;12.65;;
29848;SDS011;16728;50.832;5.590;2023-02-20T19:24:27;17.23;;;12.48;;
29848;SDS011;16728;50.832;5.590;2023-02-20T19:27:29;17.58;;;13.20;;
29848;SDS011;16728;50.832;5.590;2023-02-20T19:30:31;19.88;;;13.05;;
29848;SDS011;16728;50.832;5.590;2023-02-20T19:33:33;20.65;;;13.32;;
29848;SDS011;16728;50.832;5.590;2023-02-20T19:36:39;21.67;;;14.20;;
29848;SDS011;16728;50.832;5.590;2023-02-20T19:39:41;17.77;;;13.82;;
29848;SDS011;16728;50.832;5.590;2023-02-20T19:42:43;21.65;;;14.98;;
29848;SDS011;16728;50.832;5.590;2023-02-20T19:45:45;19.33;;;14.50;;
29848;SDS011;16728;50.832;5.590;2023-02-20T19:48:48;19.17;;;14.35;;
29848;SDS011;16728;50.832;5.590;2023-02-20T19:51:52;20.17;;;14.50;;
29848;SDS011;16728;50.832;5.590;2023-02-20T19:54:55;21.88;;;16.52;;
29848;SDS011;16728;50.832;5.590;2023-02-20T19:57:57;24.48;;;16.60;;
29848;SDS011;16728;50.832;5.590;2023-02-20T20:01:00;24.77;;;16.83;;
29848;SDS011;16728;50.832;5.590;2023-02-20T20:04:02;24.67;;;16.63;;
29848;SDS011;16728;50.832;5.590;2023-02-20T20:07:03;27.50;;;19.02;;
29848;SDS011;16728;50.832;5.590;2023-02-20T20:10:06;23.02;;;17.08;;
29848;SDS011;16728;50.832;5.590;2023-02-20T20:13:17;25.20;;;17.98;;
29848;SDS011;16728;50.832;5.590;2023-02-20T20:16:29;28.23;;;17.42;;
29848;SDS011;16728;50.832;5.590;2023-02-20T20:19:33;23.75;;;17.63;;
29848;SDS011;16728;50.832;5.590;2023-02-20T20:22:35;25.70;;;17.48;;
29848;SDS011;16728;50.832;5.590;2023-02-20T20:25:37;22.95;;;17.20;;
29848;SDS011;16728;50.832;5.590;2023-02-20T20:28:43;25.27;;;18.27;;
29848;SDS011;16728;50.832;5.590;2023-02-20T20:31:45;24.83;;;18.67;;
29848;SDS011;16728;50.832;5.590;2023-02-20T20:34:49;24.73;;;18.48;;
29848;SDS011;16728;50.832;5.590;2023-02-20T20:37:56;24.92;;;18.00;;
29848;SDS011;16728;50.832;5.590;2023-02-20T20:41:00;27.38;;;18.92;;
29848;SDS011;16728;50.832;5.590;2023-02-20T20:44:01;28.35;;;19.95;;
29848;SDS011;16728;50.832;5.590;2023-02-20T20:47:04;28.10;;;20.23;;